Time;durP1;ratioP1;P1;durP2;ratioP2;P2;SDS_P1;SDS_P2;PMS_P1;PMS_P2;Temp;Humidity;BMP_temperature;BMP_pressure;BME280_temperature;BME280_humidity;BME280_pressure;Samples;Min_cycle;Max_cycle;Signal;HPM_P1;HPM_P2
2024/02/18 00:00:22;;;;;;;59.55;23.60;;;;;;;9.86;100.00;99588.66;5021770;28;20581;-59
2024/02/18 00:02:48;;;;;;;63.97;23.63;;;;;;;10.20;100.00;99577.34;5023419;28;20449;-62
2024/02/18 00:05:14;;;;;;;49.42;20.08;;;;;;;10.04;100.00;99582.16;5023210;28;20547;-60
2024/02/18 00:07:39;;;;;;;88.82;23.33;;;;;;;9.90;100.00;99587.00;5019350;28;20036;-62
2024/02/18 00:10:04;;;;;;;61.28;23.10;;;;;;;10.07;100.00;99578.75;5019918;28;20033;-60
2024/02/18 00:12:30;;;;;;;71.28;21.58;;;;;;;10.13;100.00;99586.69;5021624;28;20609;-59
2024/02/18 00:14:56;;;;;;;62.83;20.80;;;;;;;9.95;100.00;99581.94;5023333;28;20041;-61
2024/02/18 00:17:21;;;;;;;54.70;22.48;;;;;;;10.20;100.00;99586.00;5020717;28;20116;-59
2024/02/18 00:19:46;;;;;;;54.70;20.13;;;;;;;9.97;100.00;99581.13;5021506;28;20128;-60
2024/02/18 00:22:12;;;;;;;88.70;22.30;;;;;;;9.73;100.00;99582.25;5022259;28;20600;-61
2024/02/18 00:24:37;;;;;;;78.05;22.33;;;;;;;9.73;100.00;99577.06;5022363;28;20029;-63
2024/02/18 00:27:03;;;;;;;76.15;23.65;;;;;;;9.65;100.00;99578.59;5022179;28;20091;-60
2024/02/18 00:29:28;;;;;;;114.05;24.95;;;;;;;9.86;100.00;99585.19;5021260;28;20049;-61
2024/02/18 00:31:54;;;;;;;75.63;21.90;;;;;;;10.01;100.00;99577.78;5021001;28;20029;-60
2024/02/18 00:34:22;;;;;;;93.28;24.15;;;;;;;10.00;100.00;99575.13;5022340;28;20141;-61
2024/02/18 00:36:48;;;;;;;96.88;22.17;;;;;;;10.07;100.00;99573.56;5020363;28;20480;-63
2024/02/18 00:39:14;;;;;;;43.65;19.58;;;;;;;10.20;100.00;99573.00;5024831;28;20882;-61
2024/02/18 00:41:41;;;;;;;57.15;19.08;;;;;;;10.12;100.00;99578.03;5021593;28;20547;-62
2024/02/18 00:44:07;;;;;;;59.63;18.92;;;;;;;10.10;100.00;99571.91;5023773;28;20370;-63
2024/02/18 00:46:32;;;;;;;74.07;22.88;;;;;;;9.84;100.00;99568.69;5023336;28;20029;-61
2024/02/18 00:48:57;;;;;;;64.65;23.92;;;;;;;9.79;100.00;99580.69;5024256;28;20017;-62
2024/02/18 00:51:23;;;;;;;59.05;22.05;;;;;;;9.75;100.00;99572.81;5020104;28;20128;-60
2024/02/18 00:53:48;;;;;;;60.90;20.90;;;;;;;9.71;100.00;99562.28;5021122;28;20116;-62
2024/02/18 00:56:13;;;;;;;64.18;24.17;;;;;;;9.68;100.00;99572.63;5020411;28;20037;-62
2024/02/18 00:58:39;;;;;;;85.75;24.02;;;;;;;9.96;100.00;99568.09;5019036;28;20110;-62
2024/02/18 01:01:05;;;;;;;44.92;20.27;;;;;;;9.96;100.00;99568.09;5024296;28;20049;-63
2024/02/18 01:03:30;;;;;;;78.20;23.63;;;;;;;9.97;100.00;99570.75;5022326;28;20025;-62
2024/02/18 01:05:55;;;;;;;70.97;21.90;;;;;;;9.85;100.00;99575.63;5021881;28;20037;-61
2024/02/18 01:08:21;;;;;;;52.75;19.27;;;;;;;9.74;100.00;99565.84;5023462;28;20102;-61
2024/02/18 01:10:46;;;;;;;61.90;18.75;;;;;;;9.99;100.00;99563.84;5018600;28;20033;-62
2024/02/18 01:13:11;;;;;;;56.05;18.77;;;;;;;9.92;100.00;99567.16;5021499;28;20515;-64
2024/02/18 01:15:38;;;;;;;54.80;16.17;;;;;;;9.98;100.00;99566.44;5020960;28;20076;-64
2024/02/18 01:18:03;;;;;;;71.60;21.08;;;;;;;9.87;100.00;99566.13;5022858;28;20033;-60
2024/02/18 01:20:29;;;;;;;65.95;19.05;;;;;;;9.86;100.00;99572.19;5021588;28;20516;-60
2024/02/18 01:22:54;;;;;;;56.30;19.77;;;;;;;9.76;100.00;99571.06;5020975;28;20065;-62
2024/02/18 01:25:19;;;;;;;66.22;21.02;;;;;;;9.78;100.00;99564.19;5020946;28;20037;-65
2024/02/18 01:27:45;;;;;;;81.95;21.67;;;;;;;9.74;100.00;99567.56;5020318;28;20394;-63
2024/02/18 01:30:11;;;;;;;51.25;20.80;;;;;;;9.71;100.00;99568.38;5023670;28;20047;-62
2024/02/18 01:32:36;;;;;;;83.72;21.77;;;;;;;9.75;100.00;99565.00;5020184;28;20057;-63
2024/02/18 01:35:01;;;;;;;55.42;23.17;;;;;;;9.54;100.00;99569.66;5021359;28;20388;-61
2024/02/18 01:37:27;;;;;;;61.08;22.80;;;;;;;9.71;100.00;99570.97;5021206;28;20045;-60
2024/02/18 01:39:52;;;;;;;75.03;22.10;;;;;;;9.62;100.00;99568.13;5018084;28;20036;-60
2024/02/18 01:42:18;;;;;;;59.20;22.15;;;;;;;9.40;100.00;99572.75;5021287;28;20029;-60
2024/02/18 01:44:44;;;;;;;73.18;22.98;;;;;;;9.51;100.00;99568.72;5020286;28;20062;-63
2024/02/18 01:47:09;;;;;;;87.47;25.80;;;;;;;9.40;100.00;99567.56;5020238;28;20115;-60
2024/02/18 01:49:35;;;;;;;109.40;27.40;;;;;;;9.48;100.00;99568.66;5020426;28;20329;-62
2024/02/18 01:52:01;;;;;;;51.50;22.20;;;;;;;9.13;100.00;99570.28;5022332;28;20037;-61
2024/02/18 01:54:33;;;;;;;90.32;25.75;;;;;;;9.30;100.00;99571.63;5022342;28;20045;-61
2024/02/18 01:57:01;;;;;;;59.50;22.67;;;;;;;9.32;100.00;99576.88;5020805;28;20041;-62
2024/02/18 01:59:26;;;;;;;79.90;23.95;;;;;;;9.06;100.00;99574.44;5021288;28;20408;-60
2024/02/18 02:01:52;;;;;;;56.63;24.35;;;;;;;9.07;100.00;99570.97;5024444;28;20498;-62
2024/02/18 02:04:18;;;;;;;77.85;26.67;;;;;;;9.30;100.00;99576.81;5024801;28;20089;-64
2024/02/18 02:06:43;;;;;;;92.60;25.55;;;;;;;9.29;100.00;99575.06;5022507;28;20072;-61
2024/02/18 02:09:09;;;;;;;55.20;22.13;;;;;;;9.19;100.00;99571.34;5025368;28;20412;-61
2024/02/18 02:11:35;;;;;;;72.38;26.00;;;;;;;9.38;100.00;99567.53;5021980;28;20163;-61
2024/02/18 02:14:01;;;;;;;82.00;26.30;;;;;;;9.46;100.00;99566.81;5025096;28;20210;-62
2024/02/18 02:16:27;;;;;;;62.35;23.20;;;;;;;9.49;100.00;99562.63;5023372;28;20053;-62
2024/02/18 02:18:52;;;;;;;66.78;23.30;;;;;;;9.53;100.00;99557.50;5022925;28;20059;-60
2024/02/18 02:21:18;;;;;;;73.75;23.48;;;;;;;9.50;100.00;99559.16;5024204;28;20087;-61
2024/02/18 02:23:43;;;;;;;79.90;24.83;;;;;;;9.51;100.00;99552.28;5023246;28;20020;-60
2024/02/18 02:26:12;;;;;;;58.38;23.13;;;;;;;9.32;100.00;99553.50;5022645;28;20033;-62
2024/02/18 02:28:45;;;;;;;96.07;27.30;;;;;;;9.43;100.00;99551.19;5022309;28;20030;-62
2024/02/18 02:31:11;;;;;;;56.10;25.85;;;;;;;9.41;100.00;99551.13;5022768;28;20570;-62
2024/02/18 02:33:36;;;;;;;95.88;27.25;;;;;;;9.46;100.00;99548.66;5022912;28;20072;-60
2024/02/18 02:36:01;;;;;;;64.18;23.77;;;;;;;9.51;100.00;99542.75;5024358;28;20163;-61
2024/02/18 02:38:27;;;;;;;58.35;21.52;;;;;;;9.41;100.00;99545.94;5025898;28;20025;-62
2024/02/18 02:40:52;;;;;;;61.60;22.95;;;;;;;9.11;100.00;99549.47;5024355;28;20344;-60
2024/02/18 02:43:17;;;;;;;61.78;21.90;;;;;;;9.19;100.00;99554.88;5024312;28;20022;-61
2024/02/18 02:45:43;;;;;;;78.93;24.55;;;;;;;9.02;100.00;99546.63;5024311;28;20508;-62
2024/02/18 02:48:08;;;;;;;70.13;24.90;;;;;;;9.23;100.00;99538.53;5023942;28;20139;-60
2024/02/18 02:50:33;;;;;;;66.57;24.60;;;;;;;9.29;100.00;99541.31;5023139;28;20407;-63
2024/02/18 02:52:59;;;;;;;72.50;23.75;;;;;;;9.19;100.00;99536.69;5023204;28;20492;-59
2024/02/18 02:55:24;;;;;;;80.78;31.45;;;;;;;8.94;100.00;99536.00;5023294;28;20045;-59
2024/02/18 02:57:51;;;;;;;88.90;35.03;;;;;;;9.08;100.00;99526.91;5021391;28;20071;-59
2024/02/18 03:00:16;;;;;;;64.03;23.50;;;;;;;9.24;100.00;99535.09;5022232;28;20309;-60
2024/02/18 03:02:42;;;;;;;90.20;24.17;;;;;;;9.27;100.00;99531.72;5022933;28;20025;-60
2024/02/18 03:05:11;;;;;;;55.05;21.23;;;;;;;9.19;100.00;99526.31;5022734;28;20114;-63
2024/02/18 03:07:37;;;;;;;68.50;23.88;;;;;;;8.72;100.00;99514.63;5022823;28;20029;-59
2024/02/18 03:10:04;;;;;;;58.67;23.20;;;;;;;9.09;100.00;99526.06;5022915;28;20036;-60
2024/02/18 03:12:29;;;;;;;65.10;24.83;;;;;;;9.29;100.00;99528.31;5023113;28;20512;-61
2024/02/18 03:14:54;;;;;;;73.28;22.75;;;;;;;9.08;100.00;99523.41;5023812;28;20041;-61
2024/02/18 03:17:20;;;;;;;49.90;22.45;;;;;;;8.94;100.00;99526.50;5022522;28;20059;-59
2024/02/18 03:19:45;;;;;;;81.68;25.40;;;;;;;8.81;100.00;99519.22;5020737;28;20425;-60
2024/02/18 03:22:10;;;;;;;75.88;24.55;;;;;;;8.81;100.00;99520.13;5023143;28;20084;-61
2024/02/18 03:24:39;;;;;;;65.78;25.65;;;;;;;8.77;100.00;99520.88;5022084;28;20623;-61
2024/02/18 03:27:06;;;;;;;61.15;24.05;;;;;;;8.84;100.00;99517.59;5022870;28;20048;-61
2024/02/18 03:29:32;;;;;;;98.50;27.00;;;;;;;9.06;100.00;99519.91;5021934;28;20336;-60
2024/02/18 03:31:57;;;;;;;73.80;25.65;;;;;;;9.11;100.00;99527.00;5021335;28;20051;-59
2024/02/18 03:34:23;;;;;;;86.63;24.92;;;;;;;9.08;100.00;99518.22;5022940;28;20033;-62
2024/02/18 03:36:48;;;;;;;93.45;26.70;;;;;;;9.09;100.00;99519.97;5023508;28;20204;-59
2024/02/18 03:39:13;;;;;;;58.25;24.33;;;;;;;8.94;100.00;99521.31;5023002;28;20593;-59
2024/02/18 03:41:39;;;;;;;81.03;26.25;;;;;;;8.91;100.00;99522.97;5020747;28;20041;-60
2024/02/18 03:44:05;;;;;;;80.60;28.55;;;;;;;8.83;100.00;99527.91;5022754;28;20731;-60
2024/02/18 03:46:30;;;;;;;64.00;26.90;;;;;;;8.71;100.00;99533.63;5025447;28;20368;-59
2024/02/18 03:48:55;;;;;;;65.45;25.85;;;;;;;8.91;100.00;99526.41;5019857;28;20025;-60
2024/02/18 03:51:21;;;;;;;73.90;26.10;;;;;;;9.05;100.00;99521.63;5021238;28;20535;-61
2024/02/18 03:53:46;;;;;;;94.68;27.23;;;;;;;9.01;100.00;99516.31;5022938;28;20025;-59
2024/02/18 03:56:11;;;;;;;64.75;26.02;;;;;;;8.62;100.00;99518.72;5020904;28;20030;-63
2024/02/18 03:58:37;;;;;;;70.03;25.50;;;;;;;8.83;100.00;99509.75;5021698;28;20018;-62
2024/02/18 04:01:02;;;;;;;72.82;24.52;;;;;;;8.98;100.00;99511.91;5021842;28;20525;-62
2024/02/18 04:03:27;;;;;;;65.80;26.17;;;;;;;9.01;100.00;99512.00;5022845;28;20033;-61
2024/02/18 04:05:53;;;;;;;96.38;29.13;;;;;;;9.21;100.00;99511.66;5022302;28;20044;-59
2024/02/18 04:08:18;;;;;;;66.20;25.35;;;;;;;9.18;100.00;99507.28;5024872;28;20474;-59
2024/02/18 04:10:43;;;;;;;85.25;28.48;;;;;;;8.94;100.00;99515.25;5021349;28;20524;-60
2024/02/18 04:13:09;;;;;;;67.93;24.20;;;;;;;9.04;100.00;99506.00;5020901;28;20036;-59
2024/02/18 04:15:34;;;;;;;54.28;23.65;;;;;;;9.10;100.00;99507.03;5022148;28;20475;-61
2024/02/18 04:18:00;;;;;;;77.35;25.35;;;;;;;9.11;100.00;99503.63;5021858;28;20028;-60
2024/02/18 04:20:25;;;;;;;64.22;24.48;;;;;;;9.17;100.00;99513.28;5020972;28;20091;-58
2024/02/18 04:22:50;;;;;;;96.60;26.05;;;;;;;9.25;100.00;99495.34;5020512;28;20013;-59
2024/02/18 04:25:16;;;;;;;65.75;24.30;;;;;;;9.14;100.00;99502.84;5024161;28;20049;-60
2024/02/18 04:27:41;;;;;;;87.03;23.27;;;;;;;8.98;100.00;99499.81;5021377;28;20578;-59
2024/02/18 04:30:07;;;;;;;60.00;23.38;;;;;;;9.06;100.00;99500.00;5023424;28;20079;-59
2024/02/18 04:32:33;;;;;;;75.97;23.10;;;;;;;8.94;100.00;99505.75;5021766;28;20036;-59
2024/02/18 04:34:58;;;;;;;57.58;23.95;;;;;;;9.01;100.00;99496.41;5020869;28;20037;-60
2024/02/18 04:37:23;;;;;;;63.50;23.00;;;;;;;8.94;100.00;99497.97;5021247;28;20053;-60
2024/02/18 04:39:48;;;;;;;86.75;25.65;;;;;;;9.07;100.00;99503.50;5019011;28;20036;-59
2024/02/18 04:42:14;;;;;;;64.57;23.70;;;;;;;9.02;100.00;99492.13;5021961;28;20037;-59
2024/02/18 04:44:39;;;;;;;68.95;24.48;;;;;;;8.88;100.00;99490.03;5020251;28;20056;-59
2024/02/18 04:47:04;;;;;;;82.55;27.55;;;;;;;8.83;100.00;99496.78;5021875;28;20067;-61
2024/02/18 04:49:30;;;;;;;84.20;26.10;;;;;;;9.06;100.00;99505.19;5021179;28;20029;-59
2024/02/18 04:51:55;;;;;;;102.30;30.45;;;;;;;8.94;100.00;99504.88;5018316;28;20049;-60
2024/02/18 04:54:20;;;;;;;94.38;25.63;;;;;;;8.87;100.00;99514.19;5021416;28;20460;-61
2024/02/18 04:56:46;;;;;;;78.75;26.25;;;;;;;8.81;100.00;99519.22;5018507;28;20030;-61
2024/02/18 04:59:11;;;;;;;61.10;24.35;;;;;;;8.78;100.00;99508.75;5021364;28;20056;-60
2024/02/18 05:01:37;;;;;;;82.88;23.48;;;;;;;8.57;100.00;99505.59;5021178;28;20033;-59
2024/02/18 05:04:02;;;;;;;65.90;24.88;;;;;;;8.78;100.00;99503.56;5019763;28;20026;-60
2024/02/18 05:06:28;;;;;;;71.65;25.90;;;;;;;8.95;100.00;99502.31;5020458;28;20049;-59
2024/02/18 05:08:53;;;;;;;112.90;30.80;;;;;;;8.93;100.00;99503.13;5019343;28;20385;-59
2024/02/18 05:11:18;;;;;;;67.93;29.90;;;;;;;8.85;100.00;99501.22;5020489;28;20497;-59
2024/02/18 05:13:43;;;;;;;76.10;25.83;;;;;;;8.81;100.00;99499.34;5021237;28;20107;-58
2024/02/18 05:16:09;;;;;;;78.65;27.08;;;;;;;8.90;100.00;99503.06;5022015;28;20587;-59
2024/02/18 05:18:34;;;;;;;71.85;25.80;;;;;;;8.99;100.00;99509.34;5021567;28;20420;-61
2024/02/18 05:21:04;;;;;;;70.45;25.05;;;;;;;8.85;100.00;99502.91;5019081;28;20052;-60
2024/02/18 05:23:29;;;;;;;75.90;22.20;;;;;;;8.94;100.00;99495.38;5023120;28;20414;-58
2024/02/18 05:25:55;;;;;;;80.45;24.33;;;;;;;8.63;100.00;99501.41;5021148;28;20047;-62
2024/02/18 05:28:20;;;;;;;65.18;22.70;;;;;;;8.47;100.00;99503.53;5020605;28;20086;-59
2024/02/18 05:30:46;;;;;;;100.25;27.48;;;;;;;8.77;100.00;99497.50;5018795;28;20041;-62
2024/02/18 05:33:11;;;;;;;52.38;25.55;;;;;;;8.88;100.00;99496.91;5020093;28;20033;-61
2024/02/18 05:35:36;;;;;;;74.40;25.15;;;;;;;8.56;100.00;99492.56;5022243;28;20049;-61
2024/02/18 05:38:02;;;;;;;84.32;25.88;;;;;;;8.48;100.00;99494.91;5022497;28;20111;-60
2024/02/18 05:40:28;;;;;;;57.38;26.27;;;;;;;8.53;100.00;99495.06;5023143;28;20064;-61
2024/02/18 05:42:53;;;;;;;99.43;28.38;;;;;;;8.70;100.00;99492.97;5021240;28;20026;-61
2024/02/18 05:45:22;;;;;;;59.03;27.65;;;;;;;8.67;100.00;99488.59;5024689;28;20335;-61
2024/02/18 05:47:47;;;;;;;89.22;28.10;;;;;;;8.71;100.00;99487.84;5024796;28;20579;-62
2024/02/18 05:50:13;;;;;;;80.03;29.80;;;;;;;8.70;100.00;99480.91;5025799;28;20025;-62
2024/02/18 05:52:39;;;;;;;74.63;27.48;;;;;;;8.94;100.00;99482.41;5024615;28;20386;-57
2024/02/18 05:55:05;;;;;;;71.18;26.58;;;;;;;8.86;100.00;99481.31;5024231;28;20539;-59
2024/02/18 05:57:30;;;;;;;82.68;27.45;;;;;;;8.59;100.00;99480.59;5024889;28;20025;-63
2024/02/18 05:59:55;;;;;;;98.10;27.35;;;;;;;8.64;100.00;99483.28;5022020;28;20083;-63
2024/02/18 06:02:20;;;;;;;52.40;24.42;;;;;;;8.88;100.00;99489.13;5024958;28;20439;-58
2024/02/18 06:04:47;;;;;;;87.22;24.58;;;;;;;8.74;100.00;99481.84;5023674;28;20528;-59
2024/02/18 06:07:12;;;;;;;72.22;25.48;;;;;;;8.43;100.00;99481.81;5025401;28;20043;-57
2024/02/18 06:09:38;;;;;;;81.55;26.17;;;;;;;8.41;100.00;99482.59;5023124;28;20199;-61
2024/02/18 06:12:03;;;;;;;88.65;28.25;;;;;;;8.36;100.00;99482.47;5022227;28;20099;-59
2024/02/18 06:14:29;;;;;;;92.25;31.13;;;;;;;8.23;100.00;99481.22;5022430;28;20512;-60
2024/02/18 06:16:54;;;;;;;88.00;31.83;;;;;;;8.19;100.00;99484.53;5022563;28;20129;-60
2024/02/18 06:19:19;;;;;;;101.43;34.13;;;;;;;8.23;100.00;99476.03;5022677;28;20300;-57
2024/02/18 06:21:45;;;;;;;61.10;29.05;;;;;;;8.26;100.00;99480.41;5021032;28;20892;-57
2024/02/18 06:24:10;;;;;;;73.93;31.60;;;;;;;8.30;100.00;99474.50;5022286;28;20408;-58
2024/02/18 06:26:40;;;;;;;82.97;29.55;;;;;;;8.30;100.00;99472.81;5021969;28;20900;-58
2024/02/18 06:29:05;;;;;;;69.15;32.75;;;;;;;8.43;100.00;99480.94;5021789;28;20033;-57
2024/02/18 06:31:30;;;;;;;79.70;30.13;;;;;;;8.32;100.00;99472.84;5021676;28;20037;-58
2024/02/18 06:33:55;;;;;;;99.15;34.28;;;;;;;8.11;100.00;99478.25;5023046;28;20025;-59
2024/02/18 06:36:21;;;;;;;74.22;29.65;;;;;;;8.14;100.00;99471.47;5023487;28;20040;-60
2024/02/18 06:38:46;;;;;;;76.25;29.23;;;;;;;8.32;100.00;99472.84;5022988;28;20021;-57
2024/02/18 06:41:12;;;;;;;69.68;28.50;;;;;;;8.25;100.00;99469.19;5020520;28;20799;-57
2024/02/18 06:43:37;;;;;;;75.40;30.65;;;;;;;8.31;100.00;99471.97;5024438;28;20427;-57
2024/02/18 06:46:03;;;;;;;119.25;33.63;;;;;;;8.28;100.00;99473.59;5021896;28;20385;-59
2024/02/18 06:48:30;;;;;;;69.30;30.85;;;;;;;8.14;100.00;99473.16;5024340;28;20037;-60
2024/02/18 06:50:55;;;;;;;102.72;32.25;;;;;;;8.35;100.00;99472.91;5020573;28;20037;-58
2024/02/18 06:53:21;;;;;;;75.63;28.40;;;;;;;8.34;100.00;99473.75;5024078;28;20489;-57
2024/02/18 06:55:46;;;;;;;73.47;31.77;;;;;;;8.52;100.00;99472.53;5020177;28;20037;-58
2024/02/18 06:58:14;;;;;;;64.88;29.20;;;;;;;8.62;100.00;99471.13;5025210;28;20037;-60
2024/02/18 07:00:40;;;;;;;88.63;28.83;;;;;;;8.59;100.00;99472.81;5021108;28;20504;-58
2024/02/18 07:03:06;;;;;;;104.43;32.80;;;;;;;8.54;100.00;99464.00;5023437;28;20048;-60
2024/02/18 07:05:32;;;;;;;74.55;30.13;;;;;;;8.53;100.00;99471.72;5021816;28;20240;-59
2024/02/18 07:07:57;;;;;;;117.32;31.67;;;;;;;8.87;100.00;99472.69;5020626;28;20028;-57
2024/02/18 07:10:22;;;;;;;66.38;26.58;;;;;;;8.94;100.00;99473.72;5020990;28;20115;-60
2024/02/18 07:12:48;;;;;;;61.17;27.33;;;;;;;8.94;100.00;99465.94;5022268;28;20032;-57
2024/02/18 07:15:13;;;;;;;75.72;25.23;;;;;;;9.09;100.00;99468.06;5021256;28;20501;-59
2024/02/18 07:17:38;;;;;;;77.65;25.95;;;;;;;8.98;100.00;99465.19;5024522;28;20400;-60
2024/02/18 07:20:04;;;;;;;70.97;25.20;;;;;;;9.21;100.00;99454.56;5021380;28;20315;-58
2024/02/18 07:22:30;;;;;;;80.40;24.15;;;;;;;9.34;100.00;99459.22;5022783;28;20666;-57
2024/02/18 07:24:56;;;;;;;90.75;24.30;;;;;;;9.20;100.00;99461.44;5021832;28;20028;-58
2024/02/18 07:27:21;;;;;;;60.13;21.88;;;;;;;9.07;100.00;99459.38;5023518;28;20520;-59
2024/02/18 07:29:47;;;;;;;75.65;23.27;;;;;;;9.00;100.00;99458.34;5020871;28;20025;-57
2024/02/18 07:32:13;;;;;;;57.85;24.05;;;;;;;9.61;100.00;99454.63;5020437;28;20042;-60
2024/02/18 07:34:38;;;;;;;61.75;22.58;;;;;;;9.75;100.00;99453.28;5023007;28;20575;-59
2024/02/18 07:37:04;;;;;;;102.30;25.23;;;;;;;9.66;100.00;99455.66;5021176;28;20045;-58
2024/02/18 07:39:29;;;;;;;86.40;24.35;;;;;;;9.82;100.00;99456.00;5021556;28;20571;-58
2024/02/18 07:41:54;;;;;;;102.82;24.83;;;;;;;9.97;100.00;99460.66;5020754;28;20500;-57
2024/02/18 07:44:20;;;;;;;82.93;21.85;;;;;;;9.78;100.00;99444.66;5019222;28;20033;-58
2024/02/18 07:46:46;;;;;;;65.20;21.92;;;;;;;9.45;100.00;99454.28;5022152;28;20044;-59
2024/02/18 07:49:13;;;;;;;73.97;25.08;;;;;;;10.02;100.00;99449.53;5021096;28;20029;-60
2024/02/18 07:51:38;;;;;;;52.38;20.80;;;;;;;10.30;100.00;99438.88;5022059;28;20137;-59
2024/02/18 07:54:04;;;;;;;80.35;21.17;;;;;;;10.43;100.00;99442.59;5022932;28;20360;-59
2024/02/18 07:56:29;;;;;;;65.15;18.88;;;;;;;10.49;100.00;99444.47;5022542;28;20037;-59
2024/02/18 07:58:54;;;;;;;76.75;20.20;;;;;;;10.77;100.00;99445.91;5018775;28;20048;-60
2024/02/18 08:01:19;;;;;;;56.30;17.15;;;;;;;10.74;100.00;99434.56;5021520;28;20049;-61
2024/02/18 08:03:45;;;;;;;54.90;15.60;;;;;;;10.70;100.00;99427.53;5021241;28;20017;-59
2024/02/18 08:06:10;;;;;;;45.30;16.20;;;;;;;11.25;100.00;99429.41;5019904;28;20055;-58
2024/02/18 08:08:36;;;;;;;68.85;17.98;;;;;;;11.79;100.00;99424.16;5022359;28;20091;-58
2024/02/18 08:11:02;;;;;;;105.40;21.08;;;;;;;11.83;100.00;99432.06;5019447;28;20049;-58
2024/02/18 08:13:27;;;;;;;46.95;16.60;;;;;;;11.99;100.00;99424.44;5022362;28;20512;-60
2024/02/18 08:15:52;;;;;;;59.78;22.73;;;;;;;12.66;100.00;99421.84;5019357;28;20367;-59
2024/02/18 08:18:17;;;;;;;69.80;19.45;;;;;;;12.71;100.00;99423.66;5021744;28;20040;-59
2024/02/18 08:20:44;;;;;;;58.85;16.95;;;;;;;13.59;100.00;99420.09;5019770;28;20033;-59
2024/02/18 08:23:10;;;;;;;77.85;18.25;;;;;;;13.20;100.00;99419.75;5020661;28;20229;-58
2024/02/18 08:25:36;;;;;;;71.57;16.50;;;;;;;13.56;100.00;99416.59;5022363;28;20529;-62
2024/02/18 08:28:01;;;;;;;83.28;15.70;;;;;;;13.64;100.00;99397.50;5021541;28;20546;-60
2024/02/18 08:30:26;;;;;;;48.30;13.20;;;;;;;14.10;100.00;99396.00;5019214;28;20097;-59
2024/02/18 08:32:52;;;;;;;60.00;12.75;;;;;;;13.98;100.00;99395.94;5020575;28;20021;-58
2024/02/18 08:35:17;;;;;;;56.20;16.92;;;;;;;12.86;100.00;99395.94;5020145;28;20033;-61
2024/02/18 08:37:44;;;;;;;46.22;12.60;;;;;;;13.53;100.00;99388.69;5019891;28;20052;-58
2024/02/18 08:40:10;;;;;;;94.57;19.15;;;;;;;13.63;100.00;99376.56;5018098;28;20090;-60
2024/02/18 08:42:36;;;;;;;47.53;13.45;;;;;;;13.27;100.00;99381.50;5021507;28;20318;-59
2024/02/18 08:45:02;;;;;;;81.93;15.15;;;;;;;12.50;100.00;99374.66;5019684;28;20142;-61
2024/02/18 08:47:27;;;;;;;70.03;21.83;;;;;;;13.08;100.00;99378.75;5021742;28;20045;-58
2024/02/18 08:49:53;;;;;;;56.33;13.40;;;;;;;13.58;100.00;99367.81;5019710;28;20475;-59
2024/02/18 08:52:18;;;;;;;52.97;12.52;;;;;;;13.15;100.00;99369.22;5019022;28;20045;-60
2024/02/18 08:54:43;;;;;;;54.10;12.55;;;;;;;12.83;100.00;99361.94;5022758;28;20025;-61
2024/02/18 08:57:09;;;;;;;72.80;13.18;;;;;;;12.68;100.00;99370.50;5017790;28;20523;-58
2024/02/18 08:59:35;;;;;;;90.57;30.80;;;;;;;12.67;100.00;99360.94;5022768;28;20052;-60
2024/02/18 09:02:00;;;;;;;85.32;17.50;;;;;;;12.97;100.00;99368.19;5019732;28;20136;-61
2024/02/18 09:04:26;;;;;;;62.13;13.32;;;;;;;13.21;100.00;99360.56;5021613;28;20432;-61
2024/02/18 09:06:51;;;;;;;55.60;13.18;;;;;;;14.19;100.00;99356.78;5019812;28;20577;-59
2024/02/18 09:09:18;;;;;;;54.70;21.00;;;;;;;14.53;100.00;99356.03;5022748;28;20612;-63
2024/02/18 09:11:43;;;;;;;30.85;10.27;;;;;;;14.36;100.00;99352.50;5025690;28;20072;-61
2024/02/18 09:14:09;;;;;;;72.38;13.02;;;;;;;14.57;100.00;99355.19;5027225;28;20022;-61
2024/02/18 09:16:35;;;;;;;32.33;10.48;;;;;;;15.04;100.00;99343.91;5030209;28;20052;-62
2024/02/18 09:19:00;;;;;;;70.75;12.73;;;;;;;15.31;100.00;99345.66;5027783;28;20033;-59
2024/02/18 09:21:26;;;;;;;46.92;10.90;;;;;;;15.16;100.00;99351.78;5025749;28;20045;-59
2024/02/18 09:23:51;;;;;;;32.30;10.63;;;;;;;16.40;100.00;99352.34;5027779;28;20083;-60
2024/02/18 09:26:16;;;;;;;38.08;10.48;;;;;;;16.97;100.00;99337.97;5026354;28;20033;-58
2024/02/18 09:28:42;;;;;;;46.78;14.32;;;;;;;17.86;100.00;99333.63;5032633;28;20037;-59
2024/02/18 09:31:08;;;;;;;61.08;12.20;;;;;;;19.02;100.00;99333.81;5027209;28;20045;-60
2024/02/18 09:33:34;;;;;;;33.45;8.82;;;;;;;18.86;99.46;99333.22;5028513;28;20278;-61
2024/02/18 09:36:00;;;;;;;55.83;11.35;;;;;;;18.01;100.00;99324.69;5025960;28;20060;-62
2024/02/18 09:38:25;;;;;;;34.55;9.63;;;;;;;16.65;100.00;99336.44;5028395;28;20037;-60
2024/02/18 09:40:51;;;;;;;36.42;11.77;;;;;;;17.08;100.00;99334.41;5026994;28;20049;-59
2024/02/18 09:43:16;;;;;;;44.25;10.85;;;;;;;17.78;100.00;99325.84;5026881;28;20028;-59
2024/02/18 09:45:44;;;;;;;27.92;7.97;;;;;;;17.52;100.00;99317.31;5027071;28;20124;-60
2024/02/18 09:48:13;;;;;;;56.13;10.57;;;;;;;17.59;100.00;99315.50;5027847;28;20064;-62
2024/02/18 09:50:38;;;;;;;33.53;9.05;;;;;;;18.38;100.00;99311.06;5026550;28;20321;-61
2024/02/18 09:53:08;;;;;;;58.33;10.02;;;;;;;19.73;88.80;99309.72;5026399;28;20028;-60
2024/02/18 09:55:36;;;;;;;33.25;8.27;;;;;;;21.68;59.42;99298.13;5025135;28;20155;-62
2024/02/18 09:58:02;;;;;;;44.95;22.42;;;;;;;19.30;72.65;99306.13;5025575;28;20022;-61
2024/02/18 10:00:28;;;;;;;29.65;9.02;;;;;;;18.12;79.87;99303.53;5025876;28;20044;-62
2024/02/18 10:02:54;;;;;;;34.88;9.20;;;;;;;16.79;97.61;99308.31;5029212;28;20025;-60
2024/02/18 10:05:19;;;;;;;25.42;8.43;;;;;;;16.43;100.00;99301.53;5027200;28;20041;-59
2024/02/18 10:07:45;;;;;;;26.23;9.20;;;;;;;18.52;99.97;99300.31;5029260;28;20024;-61
2024/02/18 10:10:10;;;;;;;57.65;10.23;;;;;;;20.32;72.31;99294.44;5026521;28;20039;-60
2024/02/18 10:12:36;;;;;;;31.65;8.60;;;;;;;20.77;68.67;99290.75;5031421;28;20136;-61
2024/02/18 10:15:05;;;;;;;42.75;18.27;;;;;;;20.66;69.07;99283.97;5027901;28;20036;-60
2024/02/18 10:17:31;;;;;;;44.95;10.38;;;;;;;19.38;69.26;99278.69;5026250;28;20963;-62
2024/02/18 10:19:57;;;;;;;31.25;10.95;;;;;;;20.61;78.66;99271.75;5028245;28;20036;-62
2024/02/18 10:22:24;;;;;;;30.60;9.88;;;;;;;21.19;68.63;99264.16;5026665;28;20040;-59
2024/02/18 10:24:49;;;;;;;38.97;10.63;;;;;;;18.32;81.82;99264.63;5027858;28;20155;-61
2024/02/18 10:27:16;;;;;;;49.58;10.80;;;;;;;19.68;85.61;99264.06;5027116;28;20040;-60
2024/02/18 10:29:41;;;;;;;47.65;10.18;;;;;;;19.18;86.77;99257.97;5027073;28;20080;-61
2024/02/18 10:32:06;;;;;;;67.95;17.58;;;;;;;18.62;100.00;99258.91;5024313;28;20118;-59
2024/02/18 10:34:32;;;;;;;34.97;8.68;;;;;;;17.54;96.23;99260.31;5026862;28;20040;-60
2024/02/18 10:37:07;;;;;;;33.35;9.90;;;;;;;16.45;100.00;99253.41;5028296;28;20082;-58
2024/02/18 10:39:33;;;;;;;124.68;89.85;;;;;;;15.79;99.96;99252.88;5028099;28;20390;-59
2024/02/18 10:42:11;;;;;;;32.65;9.38;;;;;;;15.78;100.00;99256.38;5026209;28;20556;-61
2024/02/18 10:44:41;;;;;;;36.60;8.90;;;;;;;16.51;100.00;99242.84;5028213;28;20028;-59
2024/02/18 10:47:08;;;;;;;57.08;9.85;;;;;;;16.47;100.00;99238.50;5027008;28;20047;-61
2024/02/18 10:49:44;;;;;;;60.22;15.80;;;;;;;16.30;93.36;99235.13;5027773;28;20048;-59
2024/02/18 10:52:36;;;;;;;50.25;8.88;;;;;;;16.21;89.99;99230.81;5025054;28;20076;-59
2024/02/18 10:55:04;;;;;;;75.13;44.13;;;;;;;16.90;86.13;99236.41;5028206;28;20025;-58
2024/02/18 10:57:34;;;;;;;35.22;13.02;;;;;;;17.80;82.35;99224.94;5026345;28;20047;-58
2024/02/18 11:00:10;;;;;;;46.28;8.65;;;;;;;18.16;74.48;99220.97;5027307;28;20078;-60
2024/02/18 11:03:07;;;;;;;31.20;7.55;;;;;;;18.42;64.22;99219.69;5028023;28;20049;-59
2024/02/18 11:05:34;;;;;;;34.65;9.40;;;;;;;17.40;71.85;99207.88;5026420;28;20041;-61
2024/02/18 11:08:01;;;;;;;121.07;108.13;;;;;;;18.29;85.98;99192.66;5025680;28;20034;-60